createdAt,value
2017-08-08T13:33:58.900Z,3.95
2017-08-08T13:37:05.655Z,4.50
2017-08-08T13:37:38.376Z,4.35
2017-08-08T13:38:10.984Z,4.00
2017-08-08T13:38:43.525Z,4.30
2017-08-08T13:39:16.098Z,3.58
2017-08-08T13:39:48.769Z,4.05
2017-08-08T13:40:21.339Z,3.80
2017-08-08T13:40:55.967Z,4.00
2017-08-08T13:41:28.533Z,3.95
2017-08-08T13:42:01.172Z,3.60
2017-08-08T13:43:50.678Z,4.37
2017-08-08T13:44:24.815Z,4.20
2017-08-08T13:45:14.152Z,3.95
2017-08-08T13:45:50.241Z,4.15
2017-08-08T13:56:04.066Z,3.95
2017-08-08T13:56:37.575Z,4.00
2017-08-08T13:57:16.913Z,3.97
2017-08-08T13:57:49.615Z,3.83
2017-08-08T13:58:22.251Z,4.12
2017-08-08T13:58:54.778Z,4.40
2017-08-08T13:59:27.322Z,3.80
2017-08-08T13:59:59.846Z,3.80
2017-08-08T14:00:32.360Z,3.90
2017-08-08T14:01:04.977Z,4.00
2017-08-08T14:01:37.504Z,3.80
2017-08-08T14:02:10.037Z,3.83
2017-08-08T14:02:42.560Z,4.30
2017-08-08T14:03:15.104Z,4.53
2017-08-08T14:03:47.629Z,4.07
2017-08-08T14:04:20.161Z,4.37
2017-08-08T14:04:52.758Z,4.20
2017-08-08T14:05:25.265Z,4.10
2017-08-08T14:05:57.802Z,4.35
2017-08-08T14:06:31.095Z,4.37
2017-08-08T14:07:03.619Z,4.45
2017-08-08T14:07:36.139Z,4.22
2017-08-08T14:08:08.709Z,4.15
2017-08-08T14:08:42.490Z,4.15
2017-08-08T14:09:17.111Z,4.68
2017-08-08T14:09:49.638Z,5.57
2017-08-08T14:10:22.177Z,4.53
2017-08-08T14:10:54.718Z,4.18
2017-08-08T14:11:28.059Z,4.53
2017-08-08T14:12:00.617Z,4.45
2017-08-08T14:12:33.149Z,4.60
2017-08-08T14:13:06.463Z,4.07
2017-08-08T14:13:39.020Z,4.00
2017-08-08T14:14:11.521Z,4.03
2017-08-08T14:14:44.088Z,4.15
2017-08-08T14:15:16.620Z,4.18
2017-08-08T14:15:49.153Z,4.40
2017-08-08T14:16:21.672Z,3.92
2017-08-08T14:16:54.993Z,3.75
2017-08-08T14:17:27.522Z,3.78
2017-08-08T14:18:00.137Z,4.28
2017-08-08T14:18:33.477Z,4.25
2017-08-08T14:19:06.022Z,4.45
2017-08-08T14:19:38.647Z,4.03
2017-08-08T14:20:11.190Z,4.78
2017-08-08T14:20:43.731Z,4.03
2017-08-08T14:21:16.269Z,3.85
2017-08-08T14:21:48.802Z,4.22
2017-08-08T14:22:21.330Z,4.65
2017-08-08T14:22:54.000Z,4.32
2017-08-08T14:23:26.510Z,4.50
2017-08-08T14:23:59.087Z,3.92
2017-08-08T14:24:31.670Z,3.72
2017-08-08T14:25:04.199Z,4.45
2017-08-08T14:25:36.842Z,3.67
2017-08-08T14:26:10.189Z,3.90
2017-08-08T14:26:42.745Z,4.22
2017-08-08T14:27:16.143Z,4.28
2017-08-08T14:27:48.686Z,4.15
2017-08-08T14:28:21.246Z,3.90
2017-08-08T14:28:54.528Z,4.30
2017-08-08T14:29:27.053Z,3.70
2017-08-08T14:30:00.367Z,3.65
2017-08-08T14:30:32.918Z,4.25
2017-08-08T14:31:05.524Z,4.80
2017-08-08T14:31:38.097Z,3.70
2017-08-08T14:32:10.686Z,4.72
2017-08-08T14:32:43.988Z,4.00
2017-08-08T14:33:16.516Z,4.37
2017-08-08T14:33:49.066Z,4.25
2017-08-08T14:34:21.669Z,3.90
2017-08-08T14:34:54.168Z,3.87
2017-08-08T14:35:26.685Z,4.10
2017-08-08T14:35:59.974Z,3.70
2017-08-08T14:36:32.490Z,3.78
2017-08-08T14:37:05.862Z,4.45
2017-08-08T14:37:38.397Z,4.50
2017-08-08T14:38:11.751Z,4.05
2017-08-08T14:38:44.284Z,4.28
2017-08-08T14:39:16.845Z,4.10
2017-08-08T14:39:50.168Z,4.12
2017-08-08T14:40:22.737Z,3.60
2017-08-08T14:40:55.271Z,3.97
2017-08-08T14:41:27.790Z,4.25
2017-08-08T14:42:00.387Z,4.40
2017-08-08T14:42:33.228Z,4.35
2017-08-08T14:43:05.770Z,4.12
2017-08-08T14:43:38.387Z,4.10
2017-08-08T14:44:10.983Z,4.87
2017-08-08T14:44:43.542Z,4.10
2017-08-08T14:45:16.098Z,3.97
2017-08-08T14:45:48.619Z,4.40
2017-08-08T14:46:22.488Z,4.45
2017-08-08T14:46:55.054Z,3.75
2017-08-08T14:47:27.577Z,4.03
2017-08-08T14:48:00.247Z,4.32
2017-08-08T14:48:32.799Z,4.30
2017-08-08T14:49:05.316Z,4.20
2017-08-08T14:49:38.720Z,4.10
2017-08-08T14:50:12.474Z,4.00
2017-08-08T14:50:45.064Z,4.40
2017-08-08T14:51:17.659Z,3.75
2017-08-08T14:51:51.003Z,4.72
2017-08-08T14:52:24.347Z,4.78
2017-08-08T14:52:56.891Z,4.35
2017-08-08T14:53:29.397Z,3.95
2017-08-08T14:54:01.928Z,4.80
2017-08-08T14:54:35.170Z,4.47
2017-08-08T14:55:07.693Z,4.30
2017-08-08T14:55:40.358Z,3.47
2017-08-08T14:56:13.648Z,4.20
2017-08-08T14:56:46.364Z,3.70
2017-08-08T14:57:18.888Z,3.90
2017-08-08T14:57:51.525Z,4.18
2017-08-08T14:58:24.040Z,4.32
2017-08-08T14:58:56.551Z,3.60
2017-08-08T14:59:29.835Z,3.72
2017-08-08T15:00:02.378Z,4.28
2017-08-08T15:00:34.909Z,3.97
2017-08-08T15:01:08.232Z,4.35
2017-08-08T15:01:40.743Z,3.60
2017-08-08T15:02:13.274Z,4.45
2017-08-08T15:02:45.959Z,3.72
2017-08-08T15:03:18.515Z,4.05
2017-08-08T15:03:51.145Z,4.10
2017-08-08T15:04:23.667Z,3.83
2017-08-08T15:04:56.237Z,3.92
2017-08-08T15:05:28.827Z,4.10
2017-08-08T15:06:02.110Z,4.00
2017-08-08T15:06:34.642Z,4.03
2017-08-08T15:07:07.189Z,3.95
2017-08-08T15:07:39.755Z,4.15
2017-08-08T15:08:12.280Z,4.10
2017-08-08T15:08:44.949Z,4.68
2017-08-08T15:09:17.470Z,4.35
2017-08-08T15:09:51.589Z,3.85
2017-08-08T15:10:24.184Z,4.03
2017-08-08T15:10:56.728Z,4.62
2017-08-08T15:11:30.022Z,4.85
2017-08-08T15:12:02.530Z,4.80
2017-08-08T15:12:35.060Z,5.50
2017-08-08T15:13:07.581Z,4.82
2017-08-08T15:13:40.111Z,4.07
2017-08-08T15:14:12.638Z,4.37
2017-08-08T15:14:45.223Z,4.22
2017-08-08T15:15:17.749Z,4.40
2017-08-08T15:15:50.401Z,4.32
2017-08-08T15:16:22.973Z,4.72
2017-08-08T15:16:55.489Z,4.12
2017-08-08T15:17:28.082Z,3.90
2017-08-08T15:18:01.375Z,3.75
2017-08-08T15:18:33.922Z,4.00
2017-08-08T15:19:06.449Z,4.03
2017-08-08T15:19:40.280Z,3.95
2017-08-08T15:20:12.902Z,4.03
2017-08-08T15:20:45.418Z,3.58
2017-08-08T15:21:17.949Z,4.22
2017-08-08T15:21:51.283Z,3.67
2017-08-08T15:22:24.608Z,4.20
2017-08-08T15:22:57.140Z,4.12
2017-08-08T15:23:29.670Z,4.43
2017-08-08T15:24:02.213Z,3.80
2017-08-08T15:24:35.447Z,4.10
2017-08-08T15:25:07.983Z,4.95
2017-08-08T15:25:40.622Z,4.00
2017-08-08T15:26:13.125Z,3.87
2017-08-08T15:26:45.767Z,3.67
2017-08-08T15:27:20.779Z,4.18
2017-08-08T15:27:54.201Z,4.00
2017-08-08T15:28:26.796Z,3.95
2017-08-08T15:28:59.379Z,4.60
2017-08-08T15:29:31.925Z,3.90
2017-08-08T15:30:04.586Z,3.97
2017-08-08T15:30:38.853Z,3.50
2017-08-08T15:31:11.422Z,4.05
2017-08-08T15:31:44.091Z,3.60
2017-08-08T15:32:16.632Z,4.32
2017-08-08T15:32:49.921Z,3.95
2017-08-08T15:33:22.515Z,4.15
2017-08-08T15:33:55.143Z,3.40
2017-08-08T15:34:28.300Z,4.07
2017-08-08T15:35:01.753Z,4.00
2017-08-08T15:35:35.397Z,4.05
2017-08-08T15:36:47.677Z,4.25
2017-08-08T15:37:20.189Z,4.57
2017-08-08T15:37:52.731Z,4.00
2017-08-08T15:38:25.310Z,3.30
2017-08-08T15:38:59.697Z,3.90
2017-08-08T15:39:32.232Z,3.50
2017-08-08T15:40:04.788Z,4.25
2017-08-08T15:40:37.359Z,3.95
2017-08-08T15:41:10.609Z,4.18
2017-08-08T15:41:43.153Z,3.67
2017-08-08T15:42:15.687Z,3.85
2017-08-08T15:42:48.218Z,4.37
2017-08-08T15:43:20.776Z,3.78
2017-08-08T15:43:53.282Z,4.05
2017-08-08T15:44:26.564Z,3.70
2017-08-08T15:44:59.084Z,3.72
2017-08-08T15:45:31.615Z,3.35
2017-08-08T15:46:04.182Z,3.70
2017-08-08T15:46:36.733Z,3.62
2017-08-08T15:47:09.249Z,3.47
2017-08-08T15:47:41.799Z,3.55
2017-08-08T15:48:15.080Z,3.85
2017-08-08T15:48:47.641Z,4.37
2017-08-08T15:49:20.208Z,3.70
2017-08-08T15:49:52.868Z,4.10
2017-08-08T15:50:26.181Z,3.47
2017-08-08T15:50:58.714Z,3.83
2017-08-08T15:51:32.003Z,4.28
2017-08-08T15:52:04.704Z,3.87
2017-08-08T15:52:37.262Z,3.50
2017-08-08T15:53:09.781Z,4.00
2017-08-08T15:53:42.307Z,3.95
2017-08-08T15:54:17.702Z,4.40
2017-08-08T15:54:50.251Z,4.22
2017-08-08T15:55:22.835Z,4.00
2017-08-08T15:55:55.376Z,3.95
2017-08-08T15:56:27.906Z,3.85
2017-08-08T15:57:00.441Z,4.18
2017-08-08T15:57:32.988Z,3.67
2017-08-08T15:58:05.543Z,4.05
2017-08-08T15:58:38.080Z,4.05
2017-08-08T15:59:10.581Z,3.97
2017-08-08T15:59:43.869Z,3.17
2017-08-08T16:00:16.548Z,3.70
2017-08-08T16:00:49.095Z,3.62
2017-08-08T16:01:21.611Z,3.80
2017-08-08T16:01:54.118Z,3.85
2017-08-08T16:02:27.474Z,3.58
2017-08-08T16:03:00.079Z,3.90
2017-08-08T16:03:32.590Z,3.10
2017-08-08T16:04:05.120Z,3.62
2017-08-08T16:04:38.445Z,3.65
2017-08-08T16:05:10.996Z,3.90
2017-08-08T16:05:43.517Z,3.58
2017-08-08T16:06:16.081Z,3.70
2017-08-08T16:06:48.657Z,4.10
2017-08-08T16:07:21.957Z,3.60
2017-08-08T16:07:54.496Z,3.10
2017-08-08T16:08:27.029Z,4.00
2017-08-08T16:08:59.543Z,3.62
2017-08-08T16:09:32.874Z,3.83
2017-08-08T16:10:06.160Z,3.03
2017-08-08T16:10:50.776Z,3.42
2017-08-08T16:11:23.404Z,3.10
2017-08-08T16:11:55.948Z,3.20
2017-08-08T16:12:28.475Z,3.40
2017-08-08T16:13:01.038Z,3.55
2017-08-08T16:13:33.576Z,3.45
2017-08-08T16:14:06.099Z,3.47
2017-08-08T16:14:38.615Z,3.12
2017-08-08T16:15:11.925Z,3.20
2017-08-08T16:15:44.473Z,3.15
2017-08-08T16:16:16.998Z,3.10
2017-08-08T16:16:49.571Z,3.20
2017-08-08T16:17:22.090Z,2.87
2017-08-08T16:17:54.811Z,3.35
2017-08-08T16:18:27.371Z,2.80
2017-08-08T16:18:59.881Z,2.92
2017-08-08T16:19:32.728Z,4.05
2017-08-08T16:20:06.134Z,3.90
2017-08-08T16:20:38.737Z,2.83
2017-08-08T16:21:11.317Z,3.20
2017-08-08T16:21:43.874Z,3.33
2017-08-08T16:22:16.421Z,3.22
2017-08-08T16:22:48.938Z,2.95
2017-08-08T16:23:21.455Z,2.95
2017-08-08T16:23:54.678Z,3.08
2017-08-08T16:24:27.211Z,3.17
2017-08-08T16:24:59.716Z,3.10
2017-08-08T16:25:32.324Z,3.53
2017-08-08T16:26:04.858Z,3.15
2017-08-08T16:26:37.387Z,3.00
2017-08-08T16:27:09.917Z,3.10
2017-08-08T16:27:42.488Z,3.47
2017-08-08T16:28:15.016Z,3.08
2017-08-08T16:28:47.559Z,2.80
2017-08-08T16:29:20.121Z,3.62
2017-08-08T16:29:52.692Z,3.10
2017-08-08T16:30:25.288Z,3.10
2017-08-08T16:30:57.856Z,3.58
2017-08-08T16:31:30.362Z,2.92
2017-08-08T16:32:03.716Z,3.00
2017-08-08T16:32:36.301Z,3.12
2017-08-08T16:33:08.886Z,3.20
2017-08-08T16:33:41.393Z,3.40
2017-08-08T16:34:13.927Z,3.28
2017-08-08T16:34:46.468Z,3.42
2017-08-08T16:35:19.052Z,3.95
2017-08-08T16:35:51.740Z,3.72
2017-08-08T16:36:24.277Z,3.20
2017-08-08T16:37:08.734Z,2.72
2017-08-08T16:37:41.244Z,3.42
2017-08-08T16:38:13.777Z,3.47
2017-08-08T16:38:46.282Z,2.90
2017-08-08T16:39:18.909Z,2.90
2017-08-08T16:39:51.508Z,3.20
2017-08-08T16:40:24.038Z,3.50
2017-08-08T16:40:56.568Z,2.83
2017-08-08T16:41:29.208Z,3.15
2017-08-08T16:42:01.822Z,3.40
2017-08-08T16:42:34.348Z,3.10
2017-08-08T16:43:06.859Z,3.03
2017-08-08T16:43:39.390Z,3.10
2017-08-08T16:44:11.910Z,3.42
2017-08-08T16:44:45.209Z,3.55
2017-08-08T16:45:18.331Z,3.10
2017-08-08T16:45:50.860Z,3.22
2017-08-08T16:46:24.145Z,3.10
2017-08-08T16:46:56.681Z,3.50
2017-08-08T16:47:29.237Z,3.10
2017-08-08T16:48:46.827Z,3.47
2017-08-08T16:49:24.111Z,3.10
2017-08-08T17:02:51.791Z,3.45
2017-08-08T17:03:24.356Z,3.10
2017-08-08T17:03:56.875Z,3.35
2017-08-08T17:04:29.405Z,3.30
2017-08-08T17:05:01.942Z,3.47
2017-08-08T17:05:35.264Z,3.60
2017-08-08T17:06:07.812Z,3.40
2017-08-08T17:06:40.336Z,3.10
2017-08-08T17:39:29.384Z,3.92
2017-08-08T17:58:07.708Z,3.60
2017-08-08T18:08:48.443Z,3.65
2017-08-08T18:09:22.098Z,4.18
2017-08-08T18:09:54.744Z,3.65
2017-08-08T18:10:27.287Z,3.72
2017-08-08T18:11:02.008Z,4.00
2017-08-08T18:14:26.929Z,4.50
2017-08-08T18:14:59.482Z,3.90
2017-08-08T18:15:32.157Z,3.75
2017-08-08T18:16:04.731Z,4.20
2017-08-08T18:19:47.404Z,3.62
2017-08-08T18:20:20.307Z,3.92
2017-08-08T18:20:53.121Z,3.60
2017-08-08T18:21:26.776Z,4.10
2017-08-08T18:29:31.387Z,4.00
2017-08-08T18:31:30.985Z,4.32
2017-08-08T19:09:38.381Z,5.45
2017-08-08T19:10:13.826Z,4.57
2017-08-08T19:10:47.081Z,5.50
2017-08-08T19:11:22.044Z,6.32
2017-08-08T19:12:05.457Z,4.40
2017-08-08T19:54:25.115Z,4.78
2017-08-08T20:13:41.208Z,5.12
2017-08-08T20:14:14.015Z,4.85
2017-08-08T20:14:46.580Z,4.80
2017-08-08T20:19:47.450Z,4.75
2017-08-08T20:20:20.344Z,5.53
2017-08-08T20:22:14.562Z,4.90
2017-08-08T20:23:40.747Z,5.15
2017-08-08T20:24:13.334Z,5.07
2017-08-08T20:24:45.995Z,4.90
2017-08-08T20:25:18.527Z,5.35
2017-08-08T20:25:51.042Z,5.03
2017-08-08T20:26:24.281Z,5.40
2017-08-08T20:26:56.817Z,5.40
2017-08-08T20:27:29.352Z,5.50
2017-08-08T20:28:02.674Z,4.80
2017-08-08T20:28:35.225Z,5.07
2017-08-08T20:29:07.838Z,5.53
2017-08-08T20:29:40.419Z,5.18
2017-08-08T20:30:13.018Z,5.65
2017-08-08T20:30:46.596Z,5.53
2017-08-08T20:31:19.116Z,4.75
2017-08-08T20:31:52.501Z,5.93
2017-08-08T20:32:25.060Z,5.80
2017-08-08T20:32:57.583Z,5.55
2017-08-08T20:33:30.123Z,5.18
2017-08-08T20:34:02.651Z,4.95
2017-08-08T20:34:35.967Z,5.78
2017-08-08T20:35:08.533Z,5.12
2017-08-08T20:35:41.157Z,4.95
2017-08-08T20:36:13.688Z,5.57
2017-08-08T20:36:46.214Z,5.78
2017-08-08T20:37:18.761Z,5.55
2017-08-08T20:37:51.260Z,5.43
2017-08-08T20:38:23.807Z,5.12
2017-08-08T20:38:56.323Z,5.15
2017-08-08T20:39:28.891Z,5.50
2017-08-08T20:40:01.414Z,5.30
2017-08-08T20:40:33.961Z,5.47
2017-08-08T20:41:06.507Z,5.78
2017-08-08T20:41:39.033Z,5.78
2017-08-08T20:42:11.541Z,6.35
2017-08-08T20:42:44.823Z,5.68
2017-08-08T20:43:17.503Z,5.95
2017-08-08T20:43:50.018Z,5.75
2017-08-08T20:44:22.594Z,5.28
2017-08-08T20:44:55.122Z,4.95
2017-08-08T20:45:27.671Z,5.47
2017-08-08T20:46:00.204Z,5.43
2017-08-08T20:46:32.752Z,6.15
2017-08-08T20:47:05.284Z,5.55
2017-08-08T20:47:37.795Z,5.70
2017-08-08T20:48:10.419Z,5.00
2017-08-08T20:48:43.024Z,5.50
2017-08-08T20:49:15.537Z,5.78
2017-08-08T20:49:48.818Z,6.70
2017-08-08T20:50:21.363Z,5.80
2017-08-08T20:50:53.965Z,5.65
2017-08-08T20:51:26.546Z,6.50
2017-08-08T20:51:59.165Z,6.37
2017-08-08T20:52:31.696Z,6.45
2017-08-08T20:53:04.205Z,5.70
2017-08-08T20:53:36.728Z,5.30
2017-08-08T20:54:09.272Z,5.85
2017-08-08T20:54:42.588Z,6.20
2017-08-08T20:55:15.142Z,5.30
2017-08-08T20:55:47.693Z,6.28
2017-08-08T20:56:20.227Z,6.43
2017-08-08T20:56:52.762Z,7.65
2017-08-08T20:57:25.289Z,6.40
2017-08-08T20:57:57.832Z,5.93
2017-08-08T20:58:30.480Z,7.75
2017-08-08T20:59:03.070Z,5.47
2017-08-08T20:59:35.625Z,8.05
2017-08-08T21:00:08.985Z,6.32
2017-08-08T21:00:41.532Z,5.43
2017-08-08T21:01:14.113Z,6.00
2017-08-08T21:01:46.800Z,5.25
2017-08-08T21:02:19.333Z,6.18
2017-08-08T21:02:51.900Z,5.87
2017-08-08T21:03:24.427Z,5.40
2017-08-08T21:03:56.957Z,6.30
2017-08-08T21:04:29.496Z,5.72
2017-08-08T21:05:03.148Z,6.25
